Delray Beach, FL

8:33 PM EDT on March 27, 2015 (GMT -0400)
Palm Beach International | | Change Station
CLOSE
Current Station
Airport
Location: West Palm Beach,
Elevation: 20 ft
Nearby Weather Stations

Elev 20 ft 26.68 °N, 80.10 °W | Updated 40 minutes ago

Rain
Rain
67 °F
Feels Like 67 °F
N
13
Wind Variable Wind from West

Today
High -- | Low -- °F
--% Chance of Precip.
Yesterday
High -- | Low -- °F
Precip. -- in
7:16 AM 7:34 PM
First Quarter, 57% visible
Pressure 29.90 in
Visibility 10.0 miles
Clouds Few 3300 ft
Mostly Cloudy 5000 ft
Overcast 9000 ft
Dew Point 65 °F
Humidity 93%
Rainfall 0.71 in
Snow Depth Not available.
UV 0 out of 12
Pollen 9.60 out of 12
Air Quality Not available.
Flu Activity Not available.
METAR KPBI 272353Z 27011KT 10SM -RA FEW033 BKN050 OVC090 19/18 A2990 RMK AO2 SLP125 P0009 60071 T01940183 10322 20194 51035

More Conditions Fewer Conditions

Pressure 29.90 in
Visibility 10.0 miles
Clouds Few 3300 ft
Mostly Cloudy 5000 ft
Overcast 9000 ft
Dew Point 65 °F
Humidity 93%
Rainfall 0.71 in
Snow Depth Not available.
UV 0 out of 12
Pollen 9.60 out of 12
Air Quality Not available.
Flu Activity Not available.
METAR KPBI 272353Z 27011KT 10SM -RA FEW033 BKN050 OVC090 19/18 A2990 RMK AO2 SLP125 P0009 60071 T01940183 10322 20194 51035

More Conditions Fewer Conditions

10-Day Weather Forecast

Almanac

Astronomy

Mar. 27, 2015 Rise Set
Actual Time
Civil Twilight
Nautical Twilight
Astronomical Twilight
Moon
Length of Visible Light
Length of Day
Tomorrow will be .
, % of the Moon is Illuminated

Today's Extremes

State Highs State Lows

Community

WunderPhotos

Upload Photos

1,808,887 photos uploaded!

WunderBlogs® & News

Nearby

Air Quality

  Air Quality AQ Index Pollutant
Not available.

Snow Depth

Station Depth Elevation

Earthquake Activity

City Distance Mag. Time & Date
Minimum magnitude displayed is 2.5.

Coastal Water Temperatures

Place Temperature

Stations

Nearby Weather Stations

Station Location Temp. Windchill Dew Point Humidity Wind Precip. Elev Updated Type